Terminal Aerodrome Forecast
Issued by NWS

Home | Current Version | Previous Version | Text Only | Print | Product List | Glossary On
Versions: 1 2 3 4 5 6 7 8 9 10 11 12 13 14
496
FTUS44 KTSA 140520
TAFBVO
TAF
KBVO 140520Z 1406/1506 14010KT P6SM OVC040
     FM140900 15010KT P6SM OVC015
     FM141500 13006KT 4SM BR OVC007
     FM141800 33005KT P6SM OVC025
     FM142100 VRB03KT P6SM BKN250=

USA.gov is the U.S. government's official web portal to all federal, state and local government web resources and services.